createdAt,value
2023-01-25T00:00:41.909Z,986.34
2023-01-25T00:01:41.890Z,986.35
2023-01-25T00:02:41.927Z,986.34
2023-01-25T00:03:41.860Z,986.32
2023-01-25T00:04:41.843Z,986.28
2023-01-25T00:05:41.819Z,986.26
2023-01-25T00:06:41.804Z,986.28
2023-01-25T00:07:41.785Z,986.28
2023-01-25T00:08:41.770Z,986.25
2023-01-25T00:09:41.771Z,986.24
2023-01-25T00:10:41.737Z,986.23
2023-01-25T00:11:41.712Z,986.19
2023-01-25T00:12:41.700Z,986.25
2023-01-25T00:13:41.721Z,986.21
2023-01-25T00:14:41.679Z,986.19
2023-01-25T00:15:41.656Z,986.16
2023-01-25T00:16:41.768Z,986.22
2023-01-25T00:17:41.617Z,986.27
2023-01-25T00:18:41.597Z,986.28
2023-01-25T00:19:41.577Z,986.28
2023-01-25T00:20:41.561Z,986.26
2023-01-25T00:21:41.544Z,986.26
2023-01-25T00:22:41.527Z,986.23
2023-01-25T00:23:41.508Z,986.26
2023-01-25T00:24:41.511Z,986.22
2023-01-25T00:25:41.496Z,986.23
2023-01-25T00:26:41.481Z,986.28
2023-01-25T00:27:41.437Z,986.19
2023-01-25T00:28:41.429Z,986.22
2023-01-25T00:29:41.409Z,986.21
2023-01-25T00:30:41.388Z,986.22
2023-01-25T00:31:41.567Z,986.20
2023-01-25T00:32:41.473Z,986.17
2023-01-25T00:33:41.355Z,986.11
2023-01-25T00:34:41.319Z,986.11
2023-01-25T00:35:41.300Z,986.10
2023-01-25T00:36:41.291Z,986.08
2023-01-25T00:37:41.265Z,986.08
2023-01-25T00:38:41.249Z,986.11
2023-01-25T00:39:41.228Z,986.10
2023-01-25T00:40:41.223Z,986.10
2023-01-25T00:41:41.219Z,986.13
2023-01-25T00:42:41.181Z,986.11
2023-01-25T00:43:41.160Z,986.15
2023-01-25T00:44:41.146Z,986.11
2023-01-25T00:45:41.181Z,986.09
2023-01-25T00:46:41.122Z,986.07
2023-01-25T00:47:41.093Z,986.04
2023-01-25T00:48:41.082Z,986.08
2023-01-25T00:49:41.064Z,986.09
2023-01-25T00:50:41.045Z,986.05
2023-01-25T00:51:41.020Z,986.00
2023-01-25T00:52:41.017Z,986.01
2023-01-25T00:53:40.984Z,986.03
2023-01-25T00:54:40.969Z,985.97
2023-01-25T00:55:40.949Z,985.94
2023-01-25T00:56:40.936Z,985.97
2023-01-25T00:57:40.965Z,985.98
2023-01-25T00:58:40.904Z,985.94
2023-01-25T00:59:40.881Z,985.92
2023-01-25T01:00:40.871Z,985.85
2023-01-25T01:01:40.854Z,985.91
2023-01-25T01:02:40.887Z,985.84
2023-01-25T01:03:40.822Z,985.84
2023-01-25T01:04:40.936Z,985.81
2023-01-25T01:05:40.777Z,985.88
2023-01-25T01:06:40.771Z,985.88
2023-01-25T01:07:40.741Z,985.85
2023-01-25T01:08:40.729Z,985.78
2023-01-25T01:09:40.706Z,985.75
2023-01-25T01:10:40.698Z,985.81
2023-01-25T01:11:40.686Z,985.82
2023-01-25T01:12:40.659Z,985.81
2023-01-25T01:13:40.659Z,985.81
2023-01-25T01:14:40.628Z,985.75
2023-01-25T01:15:40.606Z,985.72
2023-01-25T01:16:40.639Z,985.75
2023-01-25T01:17:40.586Z,985.71
2023-01-25T01:18:40.557Z,985.72
2023-01-25T01:19:40.534Z,985.70
2023-01-25T01:20:40.524Z,985.72
2023-01-25T01:21:40.502Z,985.73
2023-01-25T01:22:40.489Z,985.72
2023-01-25T01:23:40.471Z,985.76
2023-01-25T01:24:40.450Z,985.71
2023-01-25T01:25:40.435Z,985.78
2023-01-25T01:26:40.415Z,985.83
2023-01-25T01:27:40.396Z,985.81
2023-01-25T01:28:40.380Z,985.87
2023-01-25T01:29:40.389Z,985.88
2023-01-25T01:30:40.362Z,985.88
2023-01-25T01:31:40.404Z,985.89
2023-01-25T01:32:40.470Z,985.87
2023-01-25T01:33:40.295Z,985.85
2023-01-25T01:34:40.290Z,985.82
2023-01-25T01:35:40.262Z,985.88
2023-01-25T01:36:40.243Z,985.81
2023-01-25T01:37:40.225Z,985.79
2023-01-25T01:38:40.209Z,985.84
2023-01-25T01:39:40.200Z,985.84
2023-01-25T01:40:40.172Z,985.83
2023-01-25T01:41:40.159Z,985.81
2023-01-25T01:42:40.136Z,985.77
2023-01-25T01:43:40.122Z,985.80
2023-01-25T01:44:40.104Z,985.79
2023-01-25T01:45:40.170Z,985.80
2023-01-25T01:46:40.079Z,985.83
2023-01-25T01:47:40.060Z,985.85
2023-01-25T01:48:40.068Z,985.82
2023-01-25T01:49:40.031Z,985.85
2023-01-25T01:50:39.998Z,985.84
2023-01-25T01:51:40.001Z,985.88
2023-01-25T01:52:39.971Z,985.89
2023-01-25T01:53:39.950Z,985.90
2023-01-25T01:54:39.929Z,985.86
2023-01-25T01:55:39.917Z,985.88
2023-01-25T01:56:39.931Z,985.88
2023-01-25T01:57:39.881Z,985.87
2023-01-25T01:58:39.860Z,985.86
2023-01-25T01:59:39.847Z,985.88
2023-01-25T02:00:39.839Z,985.87
2023-01-25T02:01:39.891Z,985.80
2023-01-25T02:02:39.892Z,985.79
2023-01-25T02:03:39.777Z,985.89
2023-01-25T02:04:39.756Z,985.93
2023-01-25T02:05:39.742Z,985.87
2023-01-25T02:06:39.720Z,985.87
2023-01-25T02:07:39.707Z,985.84
2023-01-25T02:08:39.685Z,985.84
2023-01-25T02:09:39.674Z,985.83
2023-01-25T02:10:39.656Z,985.81
2023-01-25T02:11:39.638Z,985.76
2023-01-25T02:12:39.636Z,985.71
2023-01-25T02:13:39.601Z,985.67
2023-01-25T02:14:39.584Z,985.72
2023-01-25T02:15:39.631Z,985.72
2023-01-25T02:16:39.548Z,985.66
2023-01-25T02:17:39.551Z,985.68
2023-01-25T02:18:39.516Z,985.69
2023-01-25T02:19:39.531Z,985.73
2023-01-25T02:20:39.500Z,985.66
2023-01-25T02:21:39.479Z,985.63
2023-01-25T02:22:39.451Z,985.69
2023-01-25T02:23:39.429Z,985.66
2023-01-25T02:24:39.408Z,985.65
2023-01-25T02:25:39.395Z,985.58
2023-01-25T02:26:39.374Z,985.56
2023-01-25T02:27:39.359Z,985.58
2023-01-25T02:28:39.340Z,985.65
2023-01-25T02:29:39.326Z,985.64
2023-01-25T02:30:39.305Z,985.62
2023-01-25T02:31:39.418Z,985.60
2023-01-25T02:32:39.270Z,985.59
2023-01-25T02:33:39.278Z,985.66
2023-01-25T02:34:39.233Z,985.64
2023-01-25T02:35:39.225Z,985.67
2023-01-25T02:36:39.199Z,985.70
2023-01-25T02:37:39.195Z,985.64
2023-01-25T02:38:39.179Z,985.58
2023-01-25T02:39:39.150Z,985.61
2023-01-25T02:40:39.129Z,985.60
2023-01-25T02:41:39.113Z,985.66
2023-01-25T02:42:39.095Z,985.61
2023-01-25T02:43:39.084Z,985.59
2023-01-25T02:44:39.061Z,985.59
2023-01-25T02:45:39.061Z,985.58
2023-01-25T02:46:39.142Z,985.60
2023-01-25T02:47:39.011Z,985.63
2023-01-25T02:48:38.988Z,985.59
2023-01-25T02:49:38.996Z,985.56
2023-01-25T02:50:38.952Z,985.58
2023-01-25T02:51:38.939Z,985.59
2023-01-25T02:52:38.919Z,985.60
2023-01-25T02:53:38.907Z,985.52
2023-01-25T02:54:38.881Z,985.57
2023-01-25T02:55:38.869Z,985.64
2023-01-25T02:56:38.849Z,985.61
2023-01-25T02:57:38.838Z,985.56
2023-01-25T02:58:38.812Z,985.50
2023-01-25T02:59:38.799Z,985.50
2023-01-25T03:00:38.776Z,985.52
2023-01-25T03:01:38.938Z,985.52
2023-01-25T03:02:38.833Z,985.54
2023-01-25T03:03:38.727Z,985.51
2023-01-25T03:04:38.706Z,985.50
2023-01-25T03:05:38.712Z,985.48
2023-01-25T03:06:38.675Z,985.49
2023-01-25T03:07:38.657Z,985.49
2023-01-25T03:08:38.635Z,985.49
2023-01-25T03:09:38.628Z,985.51
2023-01-25T03:10:38.601Z,985.48
2023-01-25T03:11:38.587Z,985.47
2023-01-25T03:12:38.572Z,985.43
2023-01-25T03:13:38.563Z,985.41
2023-01-25T03:14:38.532Z,985.40
2023-01-25T03:15:38.524Z,985.35
2023-01-25T03:16:38.573Z,985.38
2023-01-25T03:17:38.484Z,985.41
2023-01-25T03:18:38.458Z,985.42
2023-01-25T03:19:38.445Z,985.38
2023-01-25T03:20:38.426Z,985.38
2023-01-25T03:21:38.437Z,985.32
2023-01-25T03:22:38.416Z,985.34
2023-01-25T03:23:38.376Z,985.38
2023-01-25T03:24:38.354Z,985.36
2023-01-25T03:25:38.342Z,985.38
2023-01-25T03:26:38.324Z,985.34
2023-01-25T03:27:38.308Z,985.35
2023-01-25T03:28:38.286Z,985.40
2023-01-25T03:29:38.287Z,985.34
2023-01-25T03:30:38.254Z,985.33
2023-01-25T03:31:38.344Z,985.31
2023-01-25T03:32:38.213Z,985.34
2023-01-25T03:33:38.201Z,985.29
2023-01-25T03:34:38.178Z,985.31
2023-01-25T03:35:38.166Z,985.25
2023-01-25T03:36:38.150Z,985.30
2023-01-25T03:37:38.154Z,985.27
2023-01-25T03:38:38.109Z,985.27
2023-01-25T03:39:38.094Z,985.26
2023-01-25T03:40:38.075Z,985.26
2023-01-25T03:41:38.063Z,985.26
2023-01-25T03:42:38.049Z,985.25
2023-01-25T03:43:38.025Z,985.25
2023-01-25T03:44:38.003Z,985.24
2023-01-25T03:45:37.989Z,985.24
2023-01-25T03:46:37.977Z,985.24
2023-01-25T03:47:37.954Z,985.20
2023-01-25T03:48:37.936Z,985.22
2023-01-25T03:49:37.925Z,985.18
2023-01-25T03:50:37.903Z,985.12
2023-01-25T03:51:37.883Z,985.09
2023-01-25T03:52:37.863Z,985.10
2023-01-25T03:53:37.878Z,985.09
2023-01-25T03:54:37.828Z,985.10
2023-01-25T03:55:37.813Z,985.11
2023-01-25T03:56:37.796Z,985.09
2023-01-25T03:57:37.778Z,985.06
2023-01-25T03:58:37.763Z,985.03
2023-01-25T03:59:37.746Z,985.06
2023-01-25T04:00:37.770Z,985.04
2023-01-25T04:01:37.712Z,985.07
2023-01-25T04:02:37.723Z,985.05
2023-01-25T04:03:37.674Z,985.05
2023-01-25T04:04:37.654Z,985.01
2023-01-25T04:05:37.637Z,984.99
2023-01-25T04:06:37.617Z,984.99
2023-01-25T04:07:37.653Z,985.01
2023-01-25T04:08:37.582Z,984.97
2023-01-25T04:09:37.593Z,985.00
2023-01-25T04:10:37.548Z,984.96
2023-01-25T04:11:37.542Z,984.96
2023-01-25T04:12:37.513Z,984.99
2023-01-25T04:13:37.502Z,985.05
2023-01-25T04:14:44.247Z,984.97
2023-01-25T04:15:37.462Z,985.02
2023-01-25T04:16:37.542Z,985.03
2023-01-25T04:17:37.432Z,985.02
2023-01-25T04:18:37.415Z,985.03
2023-01-25T04:19:37.400Z,985.02
2023-01-25T04:20:37.384Z,984.98
2023-01-25T04:21:37.356Z,984.98
2023-01-25T04:22:37.336Z,984.99
2023-01-25T04:23:37.324Z,984.97
2023-01-25T04:24:37.305Z,984.89
2023-01-25T04:25:37.306Z,984.92
2023-01-25T04:26:37.266Z,984.88
2023-01-25T04:27:37.256Z,984.88
2023-01-25T04:28:37.233Z,984.85
2023-01-25T04:29:41.431Z,984.84
2023-01-25T04:30:37.197Z,984.86
2023-01-25T04:31:37.325Z,984.88
2023-01-25T04:32:37.350Z,984.93
2023-01-25T04:33:37.152Z,984.89
2023-01-25T04:34:37.131Z,984.93
2023-01-25T04:35:37.119Z,984.91
2023-01-25T04:36:37.099Z,984.91
2023-01-25T04:37:37.079Z,984.95
2023-01-25T04:38:37.058Z,984.89
2023-01-25T04:39:37.048Z,984.87
2023-01-25T04:40:37.112Z,984.89
2023-01-25T04:41:37.033Z,984.88
2023-01-25T04:42:36.987Z,984.81
2023-01-25T04:43:36.979Z,984.84
2023-01-25T04:44:36.956Z,984.81
2023-01-25T04:45:37.005Z,984.83
2023-01-25T04:46:36.918Z,984.84
2023-01-25T04:47:36.905Z,984.80
2023-01-25T04:48:36.888Z,984.81
2023-01-25T04:49:36.868Z,984.79
2023-01-25T04:50:36.848Z,984.75
2023-01-25T04:51:36.833Z,984.77
2023-01-25T04:52:36.813Z,984.76
2023-01-25T04:53:36.806Z,984.77
2023-01-25T04:54:36.777Z,984.78
2023-01-25T04:55:36.764Z,984.74
2023-01-25T04:56:36.741Z,984.78
2023-01-25T04:57:36.750Z,984.81
2023-01-25T04:58:36.731Z,984.83
2023-01-25T04:59:36.692Z,984.87
2023-01-25T05:00:36.680Z,984.87
2023-01-25T05:01:36.762Z,984.88
2023-01-25T05:02:36.775Z,984.81
2023-01-25T05:03:36.626Z,984.87
2023-01-25T05:04:36.601Z,984.84
2023-01-25T05:05:36.588Z,984.84
2023-01-25T05:06:36.565Z,984.82
2023-01-25T05:07:36.553Z,984.78
2023-01-25T05:08:36.545Z,984.83
2023-01-25T05:09:36.515Z,984.86
2023-01-25T05:10:36.499Z,984.81
2023-01-25T05:11:36.481Z,984.78
2023-01-25T05:12:36.460Z,984.86
2023-01-25T05:13:36.473Z,984.84
2023-01-25T05:14:36.424Z,984.81
2023-01-25T05:15:36.413Z,984.75
2023-01-25T05:16:36.450Z,984.78
2023-01-25T05:17:36.375Z,984.78
2023-01-25T05:18:47.957Z,984.77
2023-01-25T05:19:36.339Z,984.79
2023-01-25T05:20:36.338Z,984.76
2023-01-25T05:21:36.301Z,984.77
2023-01-25T05:22:36.310Z,984.79
2023-01-25T05:23:36.269Z,984.75
2023-01-25T05:24:36.246Z,984.79
2023-01-25T05:25:36.234Z,984.79
2023-01-25T05:26:36.212Z,984.76
2023-01-25T05:27:36.200Z,984.74
2023-01-25T05:28:36.176Z,984.76
2023-01-25T05:29:36.184Z,984.76
2023-01-25T05:30:36.163Z,984.77
2023-01-25T05:31:36.137Z,984.80
2023-01-25T05:32:36.106Z,984.81
2023-01-25T05:33:36.090Z,984.77
2023-01-25T05:34:36.071Z,984.77
2023-01-25T05:35:36.055Z,984.77
2023-01-25T05:36:36.035Z,984.79
2023-01-25T05:37:36.034Z,984.79
2023-01-25T05:38:35.998Z,984.75
2023-01-25T05:39:35.983Z,984.78
2023-01-25T05:40:35.963Z,984.73
2023-01-25T05:41:35.948Z,984.78
2023-01-25T05:42:35.927Z,984.78
2023-01-25T05:43:35.914Z,984.79
2023-01-25T05:44:35.898Z,984.77
2023-01-25T05:45:35.895Z,984.82
2023-01-25T05:46:35.857Z,984.81
2023-01-25T05:47:35.844Z,984.85
2023-01-25T05:48:35.826Z,984.86
2023-01-25T05:49:35.806Z,984.88
2023-01-25T05:50:35.789Z,984.82
2023-01-25T05:51:35.787Z,984.81
2023-01-25T05:52:35.794Z,984.85
2023-01-25T05:53:35.736Z,984.80
2023-01-25T05:54:35.724Z,984.87
2023-01-25T05:55:35.707Z,984.83
2023-01-25T05:56:35.688Z,984.82
2023-01-25T05:57:35.669Z,984.82
2023-01-25T05:58:35.649Z,984.78
2023-01-25T05:59:35.629Z,984.80
2023-01-25T06:00:35.816Z,984.80
2023-01-25T06:01:35.614Z,984.83
2023-01-25T06:02:35.734Z,984.84
2023-01-25T06:03:35.671Z,984.85
2023-01-25T06:04:35.543Z,984.85
2023-01-25T06:05:35.527Z,984.80
2023-01-25T06:06:35.507Z,984.76
2023-01-25T06:07:35.490Z,984.78
2023-01-25T06:08:35.473Z,984.81
2023-01-25T06:09:35.451Z,984.80
2023-01-25T06:10:35.441Z,984.76
2023-01-25T06:11:35.417Z,984.74
2023-01-25T06:12:35.408Z,984.76
2023-01-25T06:13:35.397Z,984.79
2023-01-25T06:14:35.367Z,984.82
2023-01-25T06:15:35.366Z,984.81
2023-01-25T06:16:35.332Z,984.75
2023-01-25T06:17:35.384Z,984.75
2023-01-25T06:18:35.296Z,984.73
2023-01-25T06:19:35.279Z,984.73
2023-01-25T06:20:35.262Z,984.73
2023-01-25T06:21:35.245Z,984.69
2023-01-25T06:22:35.225Z,984.71
2023-01-25T06:23:35.205Z,984.71
2023-01-25T06:24:35.191Z,984.66
2023-01-25T06:25:35.172Z,984.63
2023-01-25T06:26:35.162Z,984.66
2023-01-25T06:27:35.136Z,984.69
2023-01-25T06:28:35.122Z,984.67
2023-01-25T06:29:35.103Z,984.68
2023-01-25T06:30:35.088Z,984.69
2023-01-25T06:31:35.261Z,984.65
2023-01-25T06:32:35.057Z,984.64
2023-01-25T06:33:35.051Z,984.68
2023-01-25T06:34:35.015Z,984.68
2023-01-25T06:35:35.027Z,984.65
2023-01-25T06:36:34.980Z,984.64
2023-01-25T06:37:34.959Z,984.67
2023-01-25T06:38:34.943Z,984.71
2023-01-25T06:39:34.923Z,984.75
2023-01-25T06:40:34.913Z,984.70
2023-01-25T06:41:34.887Z,984.72
2023-01-25T06:42:34.871Z,984.72
2023-01-25T06:43:34.856Z,984.67
2023-01-25T06:44:34.840Z,984.68
2023-01-25T06:45:34.820Z,984.65
2023-01-25T06:46:34.891Z,984.67
2023-01-25T06:47:34.782Z,984.61
2023-01-25T06:48:34.772Z,984.66
2023-01-25T06:50:07.976Z,984.65
2023-01-25T06:50:34.727Z,984.65
2023-01-25T06:51:34.713Z,984.65
2023-01-25T06:52:34.693Z,984.65
2023-01-25T06:53:34.758Z,984.61
2023-01-25T06:54:34.660Z,984.57
2023-01-25T06:55:34.652Z,984.60
2023-01-25T06:56:34.637Z,984.57
2023-01-25T06:57:34.612Z,984.59
2023-01-25T06:58:34.587Z,984.59
2023-01-25T06:59:34.573Z,984.54
2023-01-25T07:00:34.553Z,984.56
2023-01-25T07:01:34.609Z,984.58
2023-01-25T07:02:34.597Z,984.56
2023-01-25T07:03:34.513Z,984.58
2023-01-25T07:04:34.485Z,984.52
2023-01-25T07:05:34.488Z,984.50
2023-01-25T07:06:34.445Z,984.47
2023-01-25T07:07:34.433Z,984.48
2023-01-25T07:08:34.420Z,984.46
2023-01-25T07:09:34.395Z,984.44
2023-01-25T07:10:34.379Z,984.45
2023-01-25T07:11:34.368Z,984.45
2023-01-25T07:12:34.341Z,984.42
2023-01-25T07:13:34.335Z,984.45
2023-01-25T07:14:34.320Z,984.46
2023-01-25T07:15:34.291Z,984.44
2023-01-25T07:16:34.275Z,984.42
2023-01-25T07:17:34.288Z,984.43
2023-01-25T07:18:34.236Z,984.47
2023-01-25T07:19:34.219Z,984.45
2023-01-25T07:20:34.202Z,984.47
2023-01-25T07:21:34.227Z,984.45
2023-01-25T07:22:34.162Z,984.48
2023-01-25T07:23:34.202Z,984.51
2023-01-25T07:24:34.127Z,984.46
2023-01-25T07:25:34.120Z,984.51
2023-01-25T07:26:34.128Z,984.50
2023-01-25T07:27:34.087Z,984.48
2023-01-25T07:28:34.065Z,984.48
2023-01-25T07:29:34.040Z,984.46
2023-01-25T07:30:34.021Z,984.47
2023-01-25T07:31:34.054Z,984.49
2023-01-25T07:32:33.986Z,984.49
2023-01-25T07:33:33.970Z,984.49
2023-01-25T07:34:33.952Z,984.47
2023-01-25T07:35:33.939Z,984.48
2023-01-25T07:36:33.915Z,984.50
2023-01-25T07:37:33.923Z,984.47
2023-01-25T07:38:33.882Z,984.47
2023-01-25T07:39:33.864Z,984.45
2023-01-25T07:40:33.843Z,984.49
2023-01-25T07:41:33.827Z,984.47
2023-01-25T07:42:33.807Z,984.46
2023-01-25T07:43:33.793Z,984.49
2023-01-25T07:44:33.778Z,984.51
2023-01-25T07:45:33.758Z,984.49
2023-01-25T07:46:33.734Z,984.52
2023-01-25T07:47:33.721Z,984.53
2023-01-25T07:48:33.700Z,984.49
2023-01-25T07:49:33.740Z,984.48
2023-01-25T07:50:33.666Z,984.50
2023-01-25T07:51:33.659Z,984.54
2023-01-25T07:52:33.646Z,984.51
2023-01-25T07:53:33.637Z,984.48
2023-01-25T07:54:33.644Z,984.50
2023-01-25T07:55:33.585Z,984.51
2023-01-25T07:56:33.563Z,984.54
2023-01-25T07:57:33.544Z,984.54
2023-01-25T07:58:33.527Z,984.54
2023-01-25T07:59:33.517Z,984.50
2023-01-25T08:00:33.490Z,984.46
2023-01-25T08:01:33.479Z,984.50
2023-01-25T08:02:33.459Z,984.47
2023-01-25T08:03:33.437Z,984.50
2023-01-25T08:04:33.422Z,984.47
2023-01-25T08:05:33.401Z,984.43
2023-01-25T08:06:33.381Z,984.48
2023-01-25T08:07:33.366Z,984.47
2023-01-25T08:08:33.345Z,984.40
2023-01-25T08:09:33.355Z,984.40
2023-01-25T08:10:33.309Z,984.46
2023-01-25T08:11:33.296Z,984.41
2023-01-25T08:12:33.272Z,984.40
2023-01-25T08:13:33.311Z,984.44
2023-01-25T08:14:33.241Z,984.38
2023-01-25T08:15:33.223Z,984.38
2023-01-25T08:16:33.200Z,984.40
2023-01-25T08:17:33.187Z,984.39
2023-01-25T08:18:35.769Z,984.36
2023-01-25T08:19:33.152Z,984.35
2023-01-25T08:20:33.140Z,984.37
2023-01-25T08:21:33.128Z,984.34
2023-01-25T08:22:33.095Z,984.35
2023-01-25T08:23:33.086Z,984.34
2023-01-25T08:24:33.096Z,984.33
2023-01-25T08:25:33.065Z,984.32
2023-01-25T08:26:33.024Z,984.32
2023-01-25T08:27:33.013Z,984.35
2023-01-25T08:28:32.991Z,984.31
2023-01-25T08:29:33.000Z,984.30
2023-01-25T08:30:32.954Z,984.25
2023-01-25T08:31:32.977Z,984.27
2023-01-25T08:32:32.920Z,984.30
2023-01-25T08:33:32.902Z,984.30
2023-01-25T08:34:32.881Z,984.32
2023-01-25T08:35:32.870Z,984.32
2023-01-25T08:36:32.857Z,984.30
2023-01-25T08:37:32.831Z,984.28
2023-01-25T08:38:32.828Z,984.29
2023-01-25T08:39:32.796Z,984.26
2023-01-25T08:40:34.211Z,984.31
2023-01-25T08:41:32.795Z,984.29
2023-01-25T08:42:32.742Z,984.27
2023-01-25T08:43:32.725Z,984.29
2023-01-25T08:44:32.706Z,984.32
2023-01-25T08:45:32.692Z,984.26
2023-01-25T08:46:32.669Z,984.24
2023-01-25T08:47:32.665Z,984.26
2023-01-25T08:48:32.636Z,984.23
2023-01-25T08:49:32.621Z,984.26
2023-01-25T08:50:32.628Z,984.25
2023-01-25T08:51:32.626Z,984.26
2023-01-25T08:52:32.559Z,984.20
2023-01-25T08:53:32.553Z,984.26
2023-01-25T08:54:32.525Z,984.22
2023-01-25T08:55:32.511Z,984.15
2023-01-25T08:56:32.503Z,984.17
2023-01-25T08:57:32.500Z,984.15
2023-01-25T08:58:32.456Z,984.18
2023-01-25T08:59:32.443Z,984.16
2023-01-25T09:00:32.424Z,984.18
2023-01-25T09:01:32.454Z,984.11
2023-01-25T09:02:32.389Z,984.05
2023-01-25T09:03:32.463Z,984.07
2023-01-25T09:04:32.363Z,984.03
2023-01-25T09:05:32.333Z,984.01
2023-01-25T09:06:32.317Z,984.04
2023-01-25T09:07:32.299Z,984.05
2023-01-25T09:08:32.278Z,984.01
2023-01-25T09:09:32.267Z,983.97
2023-01-25T09:10:32.242Z,984.01
2023-01-25T09:11:32.239Z,983.95
2023-01-25T09:12:32.205Z,983.94
2023-01-25T09:13:32.212Z,983.92
2023-01-25T09:14:32.229Z,983.95
2023-01-25T09:15:32.156Z,983.94
2023-01-25T09:16:32.134Z,983.91
2023-01-25T09:17:32.125Z,983.90
2023-01-25T09:18:32.099Z,983.89
2023-01-25T09:19:32.084Z,983.91
2023-01-25T09:20:34.311Z,983.88
2023-01-25T09:21:32.059Z,983.91
2023-01-25T09:22:32.052Z,983.93
2023-01-25T09:23:33.298Z,983.91
2023-01-25T09:24:32.814Z,983.95
2023-01-25T09:25:31.986Z,983.93
2023-01-25T09:26:32.402Z,983.94
2023-01-25T09:27:31.962Z,983.91
2023-01-25T09:28:31.925Z,983.99
2023-01-25T09:29:31.944Z,983.91
2023-01-25T09:30:45.571Z,983.93
2023-01-25T09:31:32.078Z,983.90
2023-01-25T09:32:31.964Z,983.86
2023-01-25T09:33:31.837Z,983.93
2023-01-25T09:34:31.833Z,983.88
2023-01-25T09:35:31.811Z,983.93
2023-01-25T09:36:31.793Z,983.87
2023-01-25T09:37:31.768Z,983.89
2023-01-25T09:38:31.746Z,983.86
2023-01-25T09:39:31.781Z,983.93
2023-01-25T09:40:31.709Z,983.88
2023-01-25T09:41:31.695Z,983.88
2023-01-25T09:42:31.683Z,983.84
2023-01-25T09:43:31.661Z,983.80
2023-01-25T09:44:31.638Z,983.81
2023-01-25T09:45:31.683Z,983.79
2023-01-25T09:46:31.671Z,983.90
2023-01-25T09:47:31.589Z,983.89
2023-01-25T09:48:31.568Z,983.86
2023-01-25T09:49:31.553Z,983.98
2023-01-25T09:50:31.543Z,983.91
2023-01-25T09:51:31.521Z,983.90
2023-01-25T09:52:31.498Z,983.83
2023-01-25T09:53:31.483Z,983.83
2023-01-25T09:54:33.761Z,983.87
2023-01-25T09:55:31.465Z,983.80
2023-01-25T09:56:31.438Z,983.90
2023-01-25T09:57:31.412Z,983.90
2023-01-25T09:58:31.399Z,983.87
2023-01-25T09:59:31.379Z,983.86
2023-01-25T10:00:31.356Z,983.82
2023-01-25T10:01:38.449Z,983.80
2023-01-25T10:02:31.427Z,983.87
2023-01-25T10:03:31.302Z,983.85
2023-01-25T10:04:31.286Z,983.81
2023-01-25T10:05:31.265Z,983.78
2023-01-25T10:06:31.248Z,983.73
2023-01-25T10:07:31.233Z,983.72
2023-01-25T10:08:31.232Z,983.70
2023-01-25T10:09:31.196Z,983.66
2023-01-25T10:10:31.192Z,983.67
2023-01-25T10:11:31.157Z,983.62
2023-01-25T10:12:31.151Z,983.66
2023-01-25T10:13:31.120Z,983.61
2023-01-25T10:14:31.105Z,983.64
2023-01-25T10:15:31.084Z,983.56
2023-01-25T10:16:32.085Z,983.58
2023-01-25T10:17:31.072Z,983.58
2023-01-25T10:18:31.036Z,983.58
2023-01-25T10:19:31.012Z,983.58
2023-01-25T10:20:30.996Z,983.61
2023-01-25T10:21:30.975Z,983.60
2023-01-25T10:22:30.964Z,983.63
2023-01-25T10:23:30.946Z,983.57
2023-01-25T10:24:30.926Z,983.54
2023-01-25T10:25:30.916Z,983.66
2023-01-25T10:26:30.890Z,983.60
2023-01-25T10:27:30.866Z,983.56
2023-01-25T10:28:30.867Z,983.55
2023-01-25T10:29:30.837Z,983.59
2023-01-25T10:30:30.815Z,983.60
2023-01-25T10:31:30.987Z,983.57
2023-01-25T10:32:30.779Z,983.61
2023-01-25T10:33:30.784Z,983.59
2023-01-25T10:34:30.743Z,983.59
2023-01-25T10:35:35.824Z,983.59
2023-01-25T10:36:30.765Z,983.59
2023-01-25T10:37:30.689Z,983.58
2023-01-25T10:38:30.676Z,983.54
2023-01-25T10:39:30.657Z,983.55
2023-01-25T10:40:30.640Z,983.50
2023-01-25T10:41:30.613Z,983.60
2023-01-25T10:42:30.598Z,983.51
2023-01-25T10:43:30.579Z,983.57
2023-01-25T10:44:30.574Z,983.54
2023-01-25T10:45:30.540Z,983.52
2023-01-25T10:46:30.540Z,983.42
2023-01-25T10:47:30.513Z,983.38
2023-01-25T10:48:30.491Z,983.40
2023-01-25T10:49:30.499Z,983.38
2023-01-25T10:50:30.452Z,983.38
2023-01-25T10:51:30.436Z,983.39
2023-01-25T10:52:30.419Z,983.37
2023-01-25T10:53:30.396Z,983.35
2023-01-25T10:54:30.381Z,983.46
2023-01-25T10:55:30.365Z,983.38
2023-01-25T10:56:30.350Z,983.32
2023-01-25T10:57:30.325Z,983.34
2023-01-25T10:58:30.316Z,983.35
2023-01-25T10:59:30.289Z,983.34
2023-01-25T11:00:30.865Z,983.35
2023-01-25T11:01:30.293Z,983.32
2023-01-25T11:02:30.284Z,983.31
2023-01-25T11:03:30.224Z,983.28
2023-01-25T11:04:30.270Z,983.25
2023-01-25T11:05:30.470Z,983.27
2023-01-25T11:06:30.168Z,983.24
2023-01-25T11:07:30.147Z,983.23
2023-01-25T11:08:30.137Z,983.26
2023-01-25T11:09:30.111Z,983.20
2023-01-25T11:10:30.097Z,983.29
2023-01-25T11:11:30.091Z,983.18
2023-01-25T11:12:30.060Z,983.15
2023-01-25T11:13:30.050Z,983.12
2023-01-25T11:14:30.030Z,983.08
2023-01-25T11:15:30.013Z,983.08
2023-01-25T11:16:29.991Z,983.07
2023-01-25T11:17:29.975Z,983.08
2023-01-25T11:18:29.954Z,983.01
2023-01-25T11:19:29.932Z,983.00
2023-01-25T11:20:29.918Z,983.01
2023-01-25T11:21:29.922Z,983.06
2023-01-25T11:22:29.881Z,982.99
2023-01-25T11:23:29.863Z,983.02
2023-01-25T11:24:29.845Z,982.99
2023-01-25T11:25:29.829Z,983.02
2023-01-25T11:26:29.809Z,983.01
2023-01-25T11:27:29.798Z,983.01
2023-01-25T11:28:29.775Z,983.02
2023-01-25T11:29:29.754Z,982.95
2023-01-25T11:30:29.743Z,982.99
2023-01-25T11:31:29.776Z,983.01
2023-01-25T11:32:29.703Z,982.97
2023-01-25T11:33:29.684Z,982.98
2023-01-25T11:34:29.679Z,982.96
2023-01-25T11:35:29.648Z,982.91
2023-01-25T11:36:29.644Z,982.97
2023-01-25T11:37:29.630Z,982.87
2023-01-25T11:38:29.605Z,982.92
2023-01-25T11:39:29.581Z,982.87
2023-01-25T11:40:29.563Z,982.87
2023-01-25T11:41:29.540Z,982.90
2023-01-25T11:42:29.523Z,982.90
2023-01-25T11:43:29.509Z,982.94
2023-01-25T11:44:29.492Z,982.87
2023-01-25T11:45:29.473Z,982.95
2023-01-25T11:46:29.525Z,982.83
2023-01-25T11:47:29.433Z,982.85
2023-01-25T11:48:29.419Z,982.82
2023-01-25T11:49:29.398Z,982.86
2023-01-25T11:50:29.383Z,982.78
2023-01-25T11:51:29.368Z,982.88
2023-01-25T11:52:29.356Z,982.76
2023-01-25T11:53:29.347Z,982.76
2023-01-25T11:54:29.481Z,982.77
2023-01-25T11:55:29.311Z,982.73
2023-01-25T11:56:29.276Z,982.71
2023-01-25T11:57:29.262Z,982.68
2023-01-25T11:58:29.269Z,982.63
2023-01-25T11:59:29.223Z,982.61
2023-01-25T12:00:29.210Z,982.68
2023-01-25T12:01:29.183Z,982.64
2023-01-25T12:02:29.194Z,982.62
2023-01-25T12:03:29.151Z,982.64
2023-01-25T12:04:29.138Z,982.63
2023-01-25T12:05:29.111Z,982.59
2023-01-25T12:06:29.097Z,982.58
2023-01-25T12:07:29.129Z,982.56
2023-01-25T12:08:30.953Z,982.57
2023-01-25T12:09:29.076Z,982.52
2023-01-25T12:10:29.032Z,982.55
2023-01-25T12:11:29.008Z,982.49
2023-01-25T12:12:28.994Z,982.48
2023-01-25T12:13:28.972Z,982.48
2023-01-25T12:14:28.963Z,982.46
2023-01-25T12:15:28.985Z,982.41
2023-01-25T12:16:29.001Z,982.40
2023-01-25T12:17:28.896Z,982.40
2023-01-25T12:18:28.886Z,982.39
2023-01-25T12:19:28.864Z,982.37
2023-01-25T12:20:28.898Z,982.33
2023-01-25T12:21:31.892Z,982.38
2023-01-25T12:22:28.812Z,982.37
2023-01-25T12:23:28.791Z,982.30
2023-01-25T12:24:28.776Z,982.37
2023-01-25T12:25:28.795Z,982.29
2023-01-25T12:26:28.741Z,982.35
2023-01-25T12:27:28.719Z,982.31
2023-01-25T12:28:28.710Z,982.35